createdAt,value
2023-01-10T00:00:42.709Z,7.62
2023-01-10T00:01:42.686Z,7.60
2023-01-10T00:02:42.712Z,7.62
2023-01-10T00:03:42.635Z,7.62
2023-01-10T00:04:42.732Z,7.62
2023-01-10T00:05:42.613Z,7.58
2023-01-10T00:06:42.610Z,7.57
2023-01-10T00:07:42.585Z,7.57
2023-01-10T00:08:42.601Z,7.57
2023-01-10T00:09:42.577Z,7.58
2023-01-10T00:10:42.571Z,7.57
2023-01-10T00:11:42.572Z,7.55
2023-01-10T00:12:42.547Z,7.55
2023-01-10T00:13:42.525Z,7.57
2023-01-10T00:14:42.527Z,7.55
2023-01-10T00:15:42.605Z,7.55
2023-01-10T00:16:42.552Z,7.55
2023-01-10T00:17:49.011Z,7.54
2023-01-10T00:18:42.492Z,7.55
2023-01-10T00:19:42.500Z,7.54
2023-01-10T00:20:42.472Z,7.54
2023-01-10T00:21:42.459Z,7.57
2023-01-10T00:22:42.437Z,7.57
2023-01-10T00:23:42.437Z,7.57
2023-01-10T00:24:42.429Z,7.57
2023-01-10T00:25:42.393Z,7.60
2023-01-10T00:26:44.404Z,7.55
2023-01-10T00:27:42.394Z,7.55
2023-01-10T00:28:42.361Z,7.55
2023-01-10T00:29:42.379Z,7.57
2023-01-10T00:30:42.336Z,7.57
2023-01-10T00:31:42.351Z,7.58
2023-01-10T00:32:42.324Z,7.58
2023-01-10T00:33:42.330Z,7.58
2023-01-10T00:34:42.318Z,7.60
2023-01-10T00:35:42.287Z,7.58
2023-01-10T00:36:42.284Z,7.58
2023-01-10T00:37:48.783Z,7.58
2023-01-10T00:38:42.283Z,7.58
2023-01-10T00:39:42.273Z,7.57
2023-01-10T00:40:42.222Z,7.58
2023-01-10T00:41:42.240Z,7.60
2023-01-10T00:42:42.222Z,7.58
2023-01-10T00:43:42.207Z,7.57
2023-01-10T00:44:42.191Z,7.55
2023-01-10T00:45:42.182Z,7.55
2023-01-10T00:46:42.181Z,7.54
2023-01-10T00:47:42.197Z,7.52
2023-01-10T00:48:42.163Z,7.52
2023-01-10T00:49:42.151Z,7.54
2023-01-10T00:50:42.124Z,7.55
2023-01-10T00:51:42.112Z,7.55
2023-01-10T00:52:42.101Z,7.57
2023-01-10T00:53:42.097Z,7.57
2023-01-10T00:54:42.071Z,7.55
2023-01-10T00:55:42.067Z,7.54
2023-01-10T00:56:42.043Z,7.51
2023-01-10T00:57:48.575Z,7.51
2023-01-10T00:58:42.038Z,7.52
2023-01-10T00:59:42.079Z,7.54
2023-01-10T01:00:42.009Z,7.52
2023-01-10T01:01:42.139Z,7.51
2023-01-10T01:02:42.049Z,7.51
2023-01-10T01:03:41.988Z,7.51
2023-01-10T01:04:41.981Z,7.52
2023-01-10T01:05:41.994Z,7.54
2023-01-10T01:06:41.936Z,7.52
2023-01-10T01:07:41.966Z,7.52
2023-01-10T01:08:41.953Z,7.52
2023-01-10T01:09:41.924Z,7.52
2023-01-10T01:10:41.913Z,7.55
2023-01-10T01:11:41.915Z,7.58
2023-01-10T01:12:41.874Z,7.58
2023-01-10T01:13:41.874Z,7.58
2023-01-10T01:14:41.891Z,7.58
2023-01-10T01:15:41.880Z,7.54
2023-01-10T01:16:41.858Z,7.54
2023-01-10T01:17:48.421Z,7.52
2023-01-10T01:18:41.813Z,7.52
2023-01-10T01:19:41.811Z,7.51
2023-01-10T01:20:41.799Z,7.52
2023-01-10T01:21:41.812Z,7.52
2023-01-10T01:22:41.779Z,7.54
2023-01-10T01:23:41.765Z,7.52
2023-01-10T01:24:41.756Z,7.52
2023-01-10T01:25:41.759Z,7.51
2023-01-10T01:26:41.717Z,7.51
2023-01-10T01:27:41.745Z,7.50
2023-01-10T01:28:41.705Z,7.51
2023-01-10T01:29:43.509Z,7.51
2023-01-10T01:30:41.698Z,7.50
2023-01-10T01:31:41.673Z,7.51
2023-01-10T01:32:41.653Z,7.51
2023-01-10T01:33:41.668Z,7.50
2023-01-10T01:34:41.640Z,7.51
2023-01-10T01:35:41.629Z,7.52
2023-01-10T01:36:41.607Z,7.52
2023-01-10T01:37:41.628Z,7.52
2023-01-10T01:38:41.604Z,7.52
2023-01-10T01:39:41.619Z,7.52
2023-01-10T01:40:41.600Z,7.52
2023-01-10T01:41:41.585Z,7.52
2023-01-10T01:42:41.540Z,7.51
2023-01-10T01:43:41.560Z,7.50
2023-01-10T01:44:41.524Z,7.50
2023-01-10T01:45:41.558Z,7.50
2023-01-10T01:46:41.552Z,7.51
2023-01-10T01:47:48.051Z,7.52
2023-01-10T01:48:41.556Z,7.55
2023-01-10T01:49:41.477Z,7.55
2023-01-10T01:50:41.517Z,7.55
2023-01-10T01:51:41.455Z,7.57
2023-01-10T01:52:41.435Z,7.57
2023-01-10T01:53:41.438Z,7.57
2023-01-10T01:54:41.436Z,7.57
2023-01-10T01:55:41.447Z,7.54
2023-01-10T01:56:41.410Z,7.52
2023-01-10T01:57:41.400Z,7.51
2023-01-10T01:58:41.373Z,7.51
2023-01-10T01:59:41.383Z,7.51
2023-01-10T02:00:41.353Z,7.50
2023-01-10T02:01:41.607Z,7.51
2023-01-10T02:02:44.091Z,7.51
2023-01-10T02:03:41.385Z,7.52
2023-01-10T02:04:41.317Z,7.52
2023-01-10T02:05:41.327Z,7.51
2023-01-10T02:06:41.322Z,7.48
2023-01-10T02:07:41.290Z,7.48
2023-01-10T02:08:41.263Z,7.48
2023-01-10T02:09:41.268Z,7.48
2023-01-10T02:10:41.263Z,7.50
2023-01-10T02:11:41.242Z,7.48
2023-01-10T02:12:41.215Z,7.50
2023-01-10T02:13:41.220Z,7.50
2023-01-10T02:14:41.203Z,7.50
2023-01-10T02:15:41.243Z,7.50
2023-01-10T02:16:41.178Z,7.47
2023-01-10T02:17:48.241Z,7.45
2023-01-10T02:18:41.148Z,7.45
2023-01-10T02:19:41.251Z,7.47
2023-01-10T02:20:41.147Z,7.47
2023-01-10T02:21:41.132Z,7.47
2023-01-10T02:22:41.130Z,7.48
2023-01-10T02:23:41.107Z,7.48
2023-01-10T02:24:41.080Z,7.48
2023-01-10T02:25:41.100Z,7.47
2023-01-10T02:26:41.083Z,7.47
2023-01-10T02:27:41.091Z,7.47
2023-01-10T02:28:41.061Z,7.50
2023-01-10T02:29:41.051Z,7.51
2023-01-10T02:30:41.019Z,7.48
2023-01-10T02:31:41.047Z,7.48
2023-01-10T02:32:50.560Z,7.51
2023-01-10T02:33:41.026Z,7.51
2023-01-10T02:34:40.981Z,7.50
2023-01-10T02:35:41.023Z,7.51
2023-01-10T02:36:40.987Z,7.51
2023-01-10T02:37:40.988Z,7.50
2023-01-10T02:38:40.955Z,7.50
2023-01-10T02:39:40.947Z,7.48
2023-01-10T02:40:40.940Z,7.50
2023-01-10T02:41:40.928Z,7.50
2023-01-10T02:42:40.893Z,7.50
2023-01-10T02:43:40.906Z,7.48
2023-01-10T02:44:40.866Z,7.48
2023-01-10T02:45:40.945Z,7.50
2023-01-10T02:46:40.932Z,7.48
2023-01-10T02:47:40.845Z,7.48
2023-01-10T02:48:40.870Z,7.47
2023-01-10T02:49:40.814Z,7.47
2023-01-10T02:50:40.879Z,7.47
2023-01-10T02:51:40.804Z,7.45
2023-01-10T02:52:40.803Z,7.45
2023-01-10T02:53:40.817Z,7.45
2023-01-10T02:54:40.796Z,7.44
2023-01-10T02:55:40.802Z,7.45
2023-01-10T02:56:40.740Z,7.45
2023-01-10T02:57:47.251Z,7.42
2023-01-10T02:58:40.743Z,7.42
2023-01-10T02:59:40.724Z,7.41
2023-01-10T03:00:40.725Z,7.42
2023-01-10T03:01:40.876Z,7.41
2023-01-10T03:02:40.674Z,7.42
2023-01-10T03:03:40.676Z,7.42
2023-01-10T03:04:40.683Z,7.45
2023-01-10T03:05:40.693Z,7.42
2023-01-10T03:06:40.650Z,7.42
2023-01-10T03:07:40.632Z,7.41
2023-01-10T03:08:40.623Z,7.39
2023-01-10T03:09:40.591Z,7.39
2023-01-10T03:10:40.603Z,7.37
2023-01-10T03:11:40.725Z,7.37
2023-01-10T03:12:40.578Z,7.34
2023-01-10T03:13:40.566Z,7.37
2023-01-10T03:14:40.560Z,7.37
2023-01-10T03:15:40.570Z,7.37
2023-01-10T03:16:40.522Z,7.37
2023-01-10T03:17:40.527Z,7.39
2023-01-10T03:18:40.499Z,7.37
2023-01-10T03:19:40.497Z,7.37
2023-01-10T03:20:40.475Z,7.37
2023-01-10T03:21:40.525Z,7.37
2023-01-10T03:22:40.482Z,7.37
2023-01-10T03:23:40.440Z,7.39
2023-01-10T03:24:40.428Z,7.37
2023-01-10T03:25:40.407Z,7.39
2023-01-10T03:26:40.425Z,7.37
2023-01-10T03:27:46.924Z,7.37
2023-01-10T03:28:40.386Z,7.39
2023-01-10T03:29:40.366Z,7.39
2023-01-10T03:30:40.387Z,7.39
2023-01-10T03:31:40.427Z,7.41
2023-01-10T03:32:40.351Z,7.41
2023-01-10T03:33:40.418Z,7.42
2023-01-10T03:34:40.345Z,7.42
2023-01-10T03:35:40.300Z,7.41
2023-01-10T03:36:40.328Z,7.42
2023-01-10T03:37:40.275Z,7.39
2023-01-10T03:38:40.297Z,7.41
2023-01-10T03:39:40.283Z,7.41
2023-01-10T03:40:40.256Z,7.41
2023-01-10T03:41:40.277Z,7.41
2023-01-10T03:42:40.254Z,7.41
2023-01-10T03:43:40.265Z,7.41
2023-01-10T03:44:40.226Z,7.41
2023-01-10T03:45:40.191Z,7.39
2023-01-10T03:46:40.214Z,7.37
2023-01-10T03:47:46.674Z,7.36
2023-01-10T03:48:40.163Z,7.39
2023-01-10T03:49:40.144Z,7.36
2023-01-10T03:50:40.164Z,7.33
2023-01-10T03:51:40.131Z,7.33
2023-01-10T03:52:40.183Z,7.32
2023-01-10T03:53:40.139Z,7.30
2023-01-10T03:54:40.329Z,7.27
2023-01-10T03:55:40.096Z,7.26
2023-01-10T03:56:40.095Z,7.26
2023-01-10T03:57:40.065Z,7.27
2023-01-10T03:58:40.057Z,7.23
2023-01-10T03:59:40.029Z,7.19
2023-01-10T04:00:40.046Z,7.16
2023-01-10T04:01:40.128Z,7.14
2023-01-10T04:02:40.015Z,7.15
2023-01-10T04:03:40.039Z,7.16
2023-01-10T04:04:39.997Z,7.15
2023-01-10T04:05:39.995Z,7.15
2023-01-10T04:06:39.962Z,7.14
2023-01-10T04:07:39.976Z,7.15
2023-01-10T04:08:39.954Z,7.14
2023-01-10T04:09:39.977Z,7.14
2023-01-10T04:10:39.932Z,7.15
2023-01-10T04:11:39.919Z,7.14
2023-01-10T04:12:39.901Z,7.14
2023-01-10T04:13:39.920Z,7.15
2023-01-10T04:14:39.894Z,7.15
2023-01-10T04:15:39.888Z,7.15
2023-01-10T04:16:39.869Z,7.16
2023-01-10T04:17:46.449Z,7.16
2023-01-10T04:18:39.841Z,7.18
2023-01-10T04:19:39.842Z,7.21
2023-01-10T04:20:39.820Z,7.24
2023-01-10T04:21:39.829Z,7.23
2023-01-10T04:22:39.774Z,7.24
2023-01-10T04:23:39.852Z,7.24
2023-01-10T04:24:39.765Z,7.23
2023-01-10T04:25:39.774Z,7.21
2023-01-10T04:26:39.755Z,7.23
2023-01-10T04:27:39.731Z,7.23
2023-01-10T04:28:39.710Z,7.24
2023-01-10T04:29:39.733Z,7.24
2023-01-10T04:30:40.194Z,7.26
2023-01-10T04:31:39.688Z,7.24
2023-01-10T04:32:39.698Z,7.26
2023-01-10T04:33:39.682Z,7.27
2023-01-10T04:34:39.673Z,7.26
2023-01-10T04:35:39.656Z,7.24
2023-01-10T04:36:39.654Z,7.23
2023-01-10T04:37:39.645Z,7.21
2023-01-10T04:38:39.609Z,7.18
2023-01-10T04:39:39.604Z,7.16
2023-01-10T04:40:39.604Z,7.12
2023-01-10T04:41:39.616Z,7.08
2023-01-10T04:42:39.581Z,7.05
2023-01-10T04:43:39.559Z,7.05
2023-01-10T04:44:39.561Z,7.05
2023-01-10T04:45:39.555Z,7.04
2023-01-10T04:46:39.535Z,7.00
2023-01-10T04:47:39.512Z,6.99
2023-01-10T04:48:39.508Z,6.97
2023-01-10T04:49:39.507Z,6.97
2023-01-10T04:50:39.492Z,6.94
2023-01-10T04:51:39.511Z,6.97
2023-01-10T04:52:39.489Z,6.99
2023-01-10T04:53:39.437Z,6.97
2023-01-10T04:54:39.541Z,6.93
2023-01-10T04:55:39.418Z,6.91
2023-01-10T04:56:39.407Z,6.87
2023-01-10T04:57:45.941Z,6.83
2023-01-10T04:58:39.425Z,6.82
2023-01-10T04:59:39.369Z,6.81
2023-01-10T05:00:39.387Z,6.76
2023-01-10T05:01:39.499Z,6.73
2023-01-10T05:02:39.469Z,6.72
2023-01-10T05:03:39.338Z,6.69
2023-01-10T05:04:39.341Z,6.64
2023-01-10T05:05:39.326Z,6.61
2023-01-10T05:06:39.307Z,6.60
2023-01-10T05:07:39.303Z,6.60
2023-01-10T05:08:39.284Z,6.60
2023-01-10T05:09:39.291Z,6.60
2023-01-10T05:10:39.328Z,6.58
2023-01-10T05:11:39.268Z,6.58
2023-01-10T05:12:39.256Z,6.58
2023-01-10T05:13:39.211Z,6.58
2023-01-10T05:14:39.222Z,6.55
2023-01-10T05:15:39.189Z,6.55
2023-01-10T05:16:39.222Z,6.53
2023-01-10T05:17:45.678Z,6.50
2023-01-10T05:18:39.168Z,6.50
2023-01-10T05:19:39.167Z,6.45
2023-01-10T05:20:39.150Z,6.42
2023-01-10T05:21:39.144Z,6.40
2023-01-10T05:22:39.119Z,6.39
2023-01-10T05:23:39.134Z,6.36
2023-01-10T05:24:39.153Z,6.36
2023-01-10T05:25:39.182Z,6.38
2023-01-10T05:26:39.079Z,6.38
2023-01-10T05:27:39.074Z,6.40
2023-01-10T05:28:39.067Z,6.40
2023-01-10T05:29:39.090Z,6.43
2023-01-10T05:30:39.040Z,6.43
2023-01-10T05:31:39.019Z,6.46
2023-01-10T05:32:39.055Z,6.50
2023-01-10T05:33:39.019Z,6.48
2023-01-10T05:34:39.021Z,6.45
2023-01-10T05:35:39.009Z,6.46
2023-01-10T05:36:38.989Z,6.46
2023-01-10T05:37:38.968Z,6.46
2023-01-10T05:38:38.985Z,6.43
2023-01-10T05:39:38.929Z,6.42
2023-01-10T05:40:38.949Z,6.42
2023-01-10T05:41:38.903Z,6.42
2023-01-10T05:42:38.904Z,6.42
2023-01-10T05:43:38.898Z,6.39
2023-01-10T05:44:38.927Z,6.36
2023-01-10T05:45:38.884Z,6.33
2023-01-10T05:46:38.906Z,6.30
2023-01-10T05:47:45.370Z,6.24
2023-01-10T05:48:38.865Z,6.21
2023-01-10T05:49:38.854Z,6.20
2023-01-10T05:50:38.820Z,6.19
2023-01-10T05:51:38.842Z,6.19
2023-01-10T05:52:38.799Z,6.16
2023-01-10T05:53:38.785Z,6.16
2023-01-10T05:54:38.814Z,6.13
2023-01-10T05:55:38.768Z,6.10
2023-01-10T05:56:38.800Z,6.11
2023-01-10T05:57:38.727Z,6.14
2023-01-10T05:58:38.750Z,6.16
2023-01-10T05:59:38.932Z,6.19
2023-01-10T06:00:38.728Z,6.19
2023-01-10T06:01:38.707Z,6.20
2023-01-10T06:02:38.869Z,6.21
2023-01-10T06:03:38.681Z,6.24
2023-01-10T06:04:38.693Z,6.28
2023-01-10T06:05:38.665Z,6.30
2023-01-10T06:06:38.650Z,6.33
2023-01-10T06:07:45.172Z,6.33
2023-01-10T06:08:38.677Z,6.36
2023-01-10T06:09:38.608Z,6.36
2023-01-10T06:10:40.159Z,6.36
2023-01-10T06:11:38.597Z,6.35
2023-01-10T06:12:38.558Z,6.32
2023-01-10T06:13:38.552Z,6.33
2023-01-10T06:14:38.581Z,6.33
2023-01-10T06:15:38.641Z,6.30
2023-01-10T06:16:38.529Z,6.25
2023-01-10T06:17:38.509Z,6.28
2023-01-10T06:18:38.526Z,6.25
2023-01-10T06:19:38.516Z,6.25
2023-01-10T06:20:38.510Z,6.21
2023-01-10T06:21:38.500Z,6.17
2023-01-10T06:22:38.464Z,6.14
2023-01-10T06:23:38.478Z,6.11
2023-01-10T06:24:38.449Z,6.14
2023-01-10T06:25:38.470Z,6.20
2023-01-10T06:26:38.417Z,6.21
2023-01-10T06:27:38.463Z,6.24
2023-01-10T06:28:38.750Z,6.21
2023-01-10T06:29:38.385Z,6.25
2023-01-10T06:30:38.400Z,6.28
2023-01-10T06:31:38.366Z,6.32
2023-01-10T06:32:38.367Z,6.35
2023-01-10T06:33:38.349Z,6.39
2023-01-10T06:34:38.321Z,6.42
2023-01-10T06:35:38.309Z,6.45
2023-01-10T06:36:38.362Z,6.45
2023-01-10T06:37:38.296Z,6.50
2023-01-10T06:38:38.292Z,6.53
2023-01-10T06:39:38.269Z,6.57
2023-01-10T06:40:38.313Z,6.61
2023-01-10T06:41:38.285Z,6.61
2023-01-10T06:42:38.223Z,6.63
2023-01-10T06:43:38.218Z,6.63
2023-01-10T06:44:38.202Z,6.64
2023-01-10T06:45:38.326Z,6.61
2023-01-10T06:46:38.204Z,6.61
2023-01-10T06:47:38.383Z,6.64
2023-01-10T06:48:38.158Z,6.65
2023-01-10T06:49:38.373Z,6.69
2023-01-10T06:50:38.159Z,6.71
2023-01-10T06:51:38.141Z,6.72
2023-01-10T06:52:38.128Z,6.72
2023-01-10T06:53:38.105Z,6.76
2023-01-10T06:54:38.112Z,6.78
2023-01-10T06:55:38.106Z,6.79
2023-01-10T06:56:38.097Z,6.78
2023-01-10T06:57:38.098Z,6.78
2023-01-10T06:58:38.121Z,6.79
2023-01-10T06:59:38.062Z,6.78
2023-01-10T07:00:38.049Z,6.78
2023-01-10T07:01:38.099Z,6.78
2023-01-10T07:02:38.022Z,6.79
2023-01-10T07:03:38.080Z,6.79
2023-01-10T07:04:37.982Z,6.79
2023-01-10T07:05:38.002Z,6.79
2023-01-10T07:06:37.964Z,6.78
2023-01-10T07:07:37.958Z,6.79
2023-01-10T07:08:37.948Z,6.81
2023-01-10T07:09:37.929Z,6.82
2023-01-10T07:10:37.960Z,6.81
2023-01-10T07:11:37.933Z,6.81
2023-01-10T07:12:37.927Z,6.81
2023-01-10T07:13:37.881Z,6.79
2023-01-10T07:14:37.880Z,6.79
2023-01-10T07:15:37.869Z,6.78
2023-01-10T07:16:37.878Z,6.76
2023-01-10T07:17:37.842Z,6.73
2023-01-10T07:18:37.850Z,6.71
2023-01-10T07:19:37.822Z,6.71
2023-01-10T07:20:37.804Z,6.65
2023-01-10T07:21:37.815Z,6.64
2023-01-10T07:22:37.794Z,6.63
2023-01-10T07:23:37.785Z,6.63
2023-01-10T07:24:37.775Z,6.63
2023-01-10T07:25:37.762Z,6.63
2023-01-10T07:26:37.738Z,6.64
2023-01-10T07:27:37.719Z,6.64
2023-01-10T07:28:37.718Z,6.64
2023-01-10T07:29:37.789Z,6.63
2023-01-10T07:30:37.711Z,6.63
2023-01-10T07:31:37.805Z,6.64
2023-01-10T07:32:37.688Z,6.61
2023-01-10T07:33:37.676Z,6.61
2023-01-10T07:34:37.674Z,6.58
2023-01-10T07:35:37.840Z,6.57
2023-01-10T07:36:39.379Z,6.55
2023-01-10T07:37:37.604Z,6.53
2023-01-10T07:38:37.620Z,6.51
2023-01-10T07:39:37.739Z,6.50
2023-01-10T07:40:37.607Z,6.45
2023-01-10T07:41:37.587Z,6.42
2023-01-10T07:42:37.614Z,6.40
2023-01-10T07:43:37.583Z,6.39
2023-01-10T07:44:37.546Z,6.39
2023-01-10T07:45:37.547Z,6.36
2023-01-10T07:46:37.538Z,6.36
2023-01-10T07:47:37.536Z,6.36
2023-01-10T07:48:37.490Z,6.35
2023-01-10T07:49:37.512Z,6.33
2023-01-10T07:50:37.469Z,6.36
2023-01-10T07:51:37.457Z,6.39
2023-01-10T07:52:37.444Z,6.42
2023-01-10T07:53:37.473Z,6.45
2023-01-10T07:54:37.456Z,6.48
2023-01-10T07:55:37.423Z,6.51
2023-01-10T07:56:37.394Z,6.53
2023-01-10T07:57:43.967Z,6.54
2023-01-10T07:58:37.397Z,6.58
2023-01-10T07:59:37.400Z,6.60
2023-01-10T08:00:37.493Z,6.64
2023-01-10T08:01:37.372Z,6.69
2023-01-10T08:02:38.092Z,6.72
2023-01-10T08:03:37.644Z,6.75
2023-01-10T08:04:37.335Z,6.78
2023-01-10T08:05:37.351Z,6.79
2023-01-10T08:06:37.296Z,6.82
2023-01-10T08:07:37.323Z,6.86
2023-01-10T08:08:37.279Z,6.89
2023-01-10T08:09:37.270Z,6.90
2023-01-10T08:10:38.478Z,6.90
2023-01-10T08:11:37.254Z,6.93
2023-01-10T08:12:37.992Z,6.94
2023-01-10T08:13:37.252Z,6.97
2023-01-10T08:14:37.260Z,7.01
2023-01-10T08:15:37.306Z,7.09
2023-01-10T08:16:37.186Z,7.15
2023-01-10T08:17:43.757Z,7.18
2023-01-10T08:18:37.172Z,7.14
2023-01-10T08:19:37.138Z,7.07
2023-01-10T08:20:37.182Z,7.01
2023-01-10T08:21:37.145Z,6.99
2023-01-10T08:22:37.121Z,6.97
2023-01-10T08:23:37.129Z,6.96
2023-01-10T08:24:37.098Z,6.99
2023-01-10T08:25:39.419Z,7.04
2023-01-10T08:26:37.089Z,7.09
2023-01-10T08:27:37.077Z,7.16
2023-01-10T08:28:37.085Z,7.29
2023-01-10T08:29:37.041Z,7.41
2023-01-10T08:30:38.033Z,7.48
2023-01-10T08:31:37.109Z,7.50
2023-01-10T08:32:37.038Z,7.73
2023-01-10T08:33:36.994Z,7.95
2023-01-10T08:34:37.546Z,7.99
2023-01-10T08:35:37.124Z,7.96
2023-01-10T08:36:36.987Z,7.94
2023-01-10T08:37:36.983Z,7.96
2023-01-10T08:38:36.949Z,8.13
2023-01-10T08:39:36.998Z,8.32
2023-01-10T08:40:36.919Z,8.60
2023-01-10T08:41:36.910Z,8.71
2023-01-10T08:42:36.918Z,8.67
2023-01-10T08:43:36.906Z,8.76
2023-01-10T08:44:36.916Z,8.86
2023-01-10T08:45:36.853Z,9.06
2023-01-10T08:46:36.965Z,9.23
2023-01-10T08:47:43.383Z,9.24
2023-01-10T08:48:36.840Z,9.30
2023-01-10T08:49:36.814Z,9.45
2023-01-10T08:50:36.799Z,9.55
2023-01-10T08:51:36.808Z,9.65
2023-01-10T08:52:36.784Z,9.59
2023-01-10T08:53:36.792Z,9.71
2023-01-10T08:54:36.774Z,9.78
2023-01-10T08:55:36.761Z,9.81
2023-01-10T08:56:36.780Z,9.91
2023-01-10T08:57:36.726Z,9.77
2023-01-10T08:58:36.745Z,9.63
2023-01-10T08:59:36.736Z,9.77
2023-01-10T09:00:36.731Z,9.98
2023-01-10T09:01:36.849Z,10.10
2023-01-10T09:02:36.823Z,10.02
2023-01-10T09:03:36.663Z,9.86
2023-01-10T09:04:36.674Z,9.80
2023-01-10T09:05:36.640Z,9.83
2023-01-10T09:06:36.659Z,9.93
2023-01-10T09:07:36.625Z,10.28
2023-01-10T09:08:36.629Z,10.68
2023-01-10T09:09:36.600Z,10.80
2023-01-10T09:10:36.615Z,10.66
2023-01-10T09:11:36.565Z,10.63
2023-01-10T09:12:36.571Z,10.57
2023-01-10T09:13:36.569Z,10.73
2023-01-10T09:14:36.580Z,10.90
2023-01-10T09:15:36.585Z,10.76
2023-01-10T09:16:36.558Z,10.66
2023-01-10T09:17:36.526Z,10.42
2023-01-10T09:18:36.533Z,10.35
2023-01-10T09:19:36.510Z,10.47
2023-01-10T09:20:36.525Z,10.75
2023-01-10T09:21:36.471Z,10.93
2023-01-10T09:22:36.439Z,10.65
2023-01-10T09:23:37.285Z,10.57
2023-01-10T09:24:36.452Z,10.57
2023-01-10T09:25:36.418Z,10.65
2023-01-10T09:26:36.425Z,10.88
2023-01-10T09:27:37.096Z,10.90
2023-01-10T09:28:37.704Z,10.83
2023-01-10T09:29:37.066Z,10.87
2023-01-10T09:30:36.395Z,10.87
2023-01-10T09:31:36.401Z,10.76
2023-01-10T09:32:37.596Z,10.72
2023-01-10T09:33:46.273Z,10.98
2023-01-10T09:34:36.404Z,11.28
2023-01-10T09:35:36.383Z,11.49
2023-01-10T09:36:36.399Z,11.78
2023-01-10T09:37:36.318Z,11.98
2023-01-10T09:38:36.336Z,12.13
2023-01-10T09:39:36.286Z,12.01
2023-01-10T09:40:36.310Z,12.13
2023-01-10T09:41:36.247Z,12.03
2023-01-10T09:42:36.241Z,11.98
2023-01-10T09:43:36.261Z,12.36
2023-01-10T09:44:37.075Z,12.54
2023-01-10T09:45:36.211Z,12.40
2023-01-10T09:46:36.316Z,12.67
2023-01-10T09:47:36.200Z,13.14
2023-01-10T09:48:36.169Z,13.53
2023-01-10T09:49:36.153Z,13.86
2023-01-10T09:50:36.163Z,14.05
2023-01-10T09:51:36.170Z,14.36
2023-01-10T09:52:36.143Z,14.98
2023-01-10T09:53:36.119Z,15.38
2023-01-10T09:54:36.136Z,15.73
2023-01-10T09:55:36.141Z,16.08
2023-01-10T09:56:36.706Z,15.78
2023-01-10T09:57:36.070Z,15.34
2023-01-10T09:58:36.096Z,14.95
2023-01-10T09:59:36.053Z,14.90
2023-01-10T10:00:36.048Z,14.67
2023-01-10T10:01:36.054Z,14.20
2023-01-10T10:02:36.225Z,13.88
2023-01-10T10:03:36.158Z,13.68
2023-01-10T10:04:36.182Z,13.41
2023-01-10T10:05:36.669Z,13.47
2023-01-10T10:06:35.982Z,13.54
2023-01-10T10:07:35.945Z,13.59
2023-01-10T10:08:35.956Z,13.86
2023-01-10T10:09:35.931Z,14.01
2023-01-10T10:10:35.908Z,14.49
2023-01-10T10:11:35.925Z,14.75
2023-01-10T10:12:35.919Z,14.71
2023-01-10T10:13:35.897Z,14.97
2023-01-10T10:14:35.871Z,15.25
2023-01-10T10:15:35.921Z,15.37
2023-01-10T10:16:35.920Z,15.51
2023-01-10T10:17:43.395Z,15.64
2023-01-10T10:18:35.854Z,15.91
2023-01-10T10:19:35.834Z,15.74
2023-01-10T10:20:35.835Z,15.96
2023-01-10T10:21:35.816Z,16.33
2023-01-10T10:22:35.813Z,16.48
2023-01-10T10:23:35.772Z,16.22
2023-01-10T10:24:35.762Z,15.31
2023-01-10T10:25:35.783Z,15.00
2023-01-10T10:26:35.803Z,15.11
2023-01-10T10:27:35.747Z,15.07
2023-01-10T10:28:39.191Z,15.00
2023-01-10T10:29:35.716Z,15.20
2023-01-10T10:30:35.707Z,14.64
2023-01-10T10:31:35.717Z,14.86
2023-01-10T10:32:35.691Z,14.98
2023-01-10T10:33:35.670Z,14.97
2023-01-10T10:34:35.668Z,15.12
2023-01-10T10:35:35.696Z,15.25
2023-01-10T10:36:35.627Z,15.11
2023-01-10T10:37:35.628Z,14.95
2023-01-10T10:38:35.636Z,14.75
2023-01-10T10:39:35.620Z,14.69
2023-01-10T10:40:35.581Z,14.67
2023-01-10T10:41:35.586Z,14.87
2023-01-10T10:42:35.600Z,14.69
2023-01-10T10:43:35.589Z,14.74
2023-01-10T10:44:35.550Z,14.48
2023-01-10T10:45:35.586Z,14.56
2023-01-10T10:46:35.535Z,14.78
2023-01-10T10:47:35.509Z,14.75
2023-01-10T10:48:35.505Z,14.83
2023-01-10T10:49:35.546Z,14.69
2023-01-10T10:50:35.498Z,14.78
2023-01-10T10:51:35.511Z,14.64
2023-01-10T10:52:35.442Z,14.45
2023-01-10T10:53:35.482Z,14.02
2023-01-10T10:54:35.400Z,13.79
2023-01-10T10:55:35.403Z,13.86
2023-01-10T10:56:35.404Z,13.93
2023-01-10T10:57:35.411Z,13.96
2023-01-10T10:58:35.362Z,13.90
2023-01-10T10:59:35.384Z,13.50
2023-01-10T11:00:35.459Z,13.38
2023-01-10T11:01:35.484Z,13.48
2023-01-10T11:02:35.337Z,13.86
2023-01-10T11:03:35.337Z,14.19
2023-01-10T11:04:35.425Z,14.41
2023-01-10T11:05:35.332Z,14.74
2023-01-10T11:06:35.416Z,15.03
2023-01-10T11:07:35.291Z,15.12
2023-01-10T11:08:35.253Z,15.48
2023-01-10T11:09:35.267Z,15.64
2023-01-10T11:10:35.263Z,15.64
2023-01-10T11:11:35.254Z,15.48
2023-01-10T11:12:36.447Z,15.34
2023-01-10T11:13:35.249Z,15.22
2023-01-10T11:14:35.183Z,15.18
2023-01-10T11:15:35.173Z,15.00
2023-01-10T11:16:35.243Z,14.44
2023-01-10T11:17:35.163Z,14.27
2023-01-10T11:18:35.162Z,14.11
2023-01-10T11:19:35.154Z,13.96
2023-01-10T11:20:35.157Z,13.79
2023-01-10T11:21:35.099Z,13.54
2023-01-10T11:22:35.173Z,13.39
2023-01-10T11:23:35.109Z,13.24
2023-01-10T11:24:35.179Z,12.88
2023-01-10T11:25:35.083Z,12.77
2023-01-10T11:26:35.090Z,12.73
2023-01-10T11:27:35.095Z,12.63
2023-01-10T11:28:35.054Z,12.62
2023-01-10T11:29:35.088Z,12.63
2023-01-10T11:30:35.050Z,12.67
2023-01-10T11:31:35.003Z,12.59
2023-01-10T11:32:35.019Z,12.55
2023-01-10T11:33:35.189Z,12.52
2023-01-10T11:34:34.996Z,12.43
2023-01-10T11:35:34.973Z,12.43
2023-01-10T11:36:34.961Z,12.34
2023-01-10T11:37:35.011Z,12.31
2023-01-10T11:38:34.966Z,12.30
2023-01-10T11:39:34.916Z,12.36
2023-01-10T11:40:34.892Z,12.22
2023-01-10T11:41:34.887Z,12.01
2023-01-10T11:42:34.906Z,11.98
2023-01-10T11:43:34.901Z,12.03
2023-01-10T11:44:34.862Z,12.07
2023-01-10T11:45:34.932Z,12.01
2023-01-10T11:46:34.839Z,11.94
2023-01-10T11:47:38.037Z,11.79
2023-01-10T11:49:03.768Z,11.69
2023-01-10T11:49:34.823Z,11.70
2023-01-10T11:50:34.821Z,11.77
2023-01-10T11:51:34.849Z,11.84
2023-01-10T11:52:34.768Z,11.84
2023-01-10T11:53:34.966Z,11.84
2023-01-10T11:54:34.724Z,11.85
2023-01-10T11:55:34.968Z,11.67
2023-01-10T11:56:34.720Z,11.54
2023-01-10T11:57:41.210Z,11.39
2023-01-10T11:58:34.706Z,11.36
2023-01-10T11:59:34.676Z,11.33
2023-01-10T12:00:34.687Z,11.31
2023-01-10T12:01:34.721Z,11.41
2023-01-10T12:02:34.699Z,11.38
2023-01-10T12:03:34.647Z,11.42
2023-01-10T12:04:34.839Z,11.48
2023-01-10T12:05:36.880Z,11.42
2023-01-10T12:06:34.623Z,11.44
2023-01-10T12:07:34.598Z,11.46
2023-01-10T12:08:34.643Z,11.42
2023-01-10T12:09:34.560Z,11.30
2023-01-10T12:10:34.549Z,11.21
2023-01-10T12:11:34.583Z,11.23
2023-01-10T12:12:34.532Z,11.42
2023-01-10T12:13:34.517Z,11.56
2023-01-10T12:14:34.525Z,11.70
2023-01-10T12:15:34.522Z,11.79
2023-01-10T12:16:34.536Z,11.81
2023-01-10T12:17:41.020Z,11.64
2023-01-10T12:18:34.486Z,11.42
2023-01-10T12:19:34.455Z,11.45
2023-01-10T12:20:34.461Z,11.51
2023-01-10T12:21:35.275Z,11.56
2023-01-10T12:22:34.431Z,11.75
2023-01-10T12:23:34.420Z,11.93
2023-01-10T12:24:34.427Z,11.98
2023-01-10T12:25:34.396Z,12.08
2023-01-10T12:26:34.414Z,12.07
2023-01-10T12:27:34.394Z,11.97
2023-01-10T12:28:34.353Z,11.79
2023-01-10T12:29:34.350Z,11.53
2023-01-10T12:30:34.420Z,11.51
2023-01-10T12:31:34.307Z,11.38
2023-01-10T12:32:34.351Z,11.33
2023-01-10T12:33:34.290Z,11.23
2023-01-10T12:34:34.282Z,11.13
2023-01-10T12:35:34.314Z,11.03
2023-01-10T12:36:34.285Z,11.02
2023-01-10T12:37:34.263Z,11.01
2023-01-10T12:38:34.267Z,10.98
2023-01-10T12:39:34.331Z,10.93
2023-01-10T12:40:34.248Z,11.01
2023-01-10T12:41:34.228Z,11.06
2023-01-10T12:42:34.194Z,10.98
2023-01-10T12:43:34.172Z,10.91
2023-01-10T12:44:34.172Z,10.87
2023-01-10T12:45:34.173Z,10.78
2023-01-10T12:47:04.815Z,10.78
2023-01-10T12:47:34.165Z,10.80
2023-01-10T12:48:34.141Z,10.83
2023-01-10T12:49:35.294Z,10.76
2023-01-10T12:50:34.121Z,10.69
2023-01-10T12:51:34.132Z,10.70
2023-01-10T12:52:34.080Z,10.73
2023-01-10T12:53:34.070Z,10.69
2023-01-10T12:54:34.060Z,10.72
2023-01-10T12:55:34.291Z,10.73
2023-01-10T12:56:34.953Z,10.80
2023-01-10T12:57:34.071Z,10.73
2023-01-10T12:58:34.017Z,10.69
2023-01-10T12:59:37.688Z,10.66
2023-01-10T13:00:40.492Z,10.66
2023-01-10T13:01:34.211Z,10.65
2023-01-10T13:02:34.164Z,10.68
2023-01-10T13:03:34.005Z,10.65
2023-01-10T13:04:33.981Z,10.62
2023-01-10T13:05:41.100Z,10.63
2023-01-10T13:06:37.696Z,10.69
2023-01-10T13:07:35.511Z,10.68
2023-01-10T13:08:33.936Z,10.55
2023-01-10T13:09:33.943Z,10.47
2023-01-10T13:10:33.950Z,10.38